Yorktown, IA

9:48 AM CDT on July 04, 2015 (GMT -0500)
NFS-2311 Maple Ave | | Change Station
CLOSE
Current Station
Personal Weather Station
Location: Clarinda, IA
Elevation: 1181 ft
Nearby Weather Stations

Elev 1181 ft 40.71 °N, 95.13 °W | Updated 12 minutes ago

Clear
Clear
70.6 °F
Feels Like 73 °F
N
4.0
Wind Variable Wind from SSW
Gusts 10.0 mph

Today
High -- | Low -- °F
--% Chance of Precip.
Yesterday
High -- | Low -- °F
Precip. -- in
5:54 AM 8:55 PM
Waning Gibbous, 92% visible
Pressure 30.05 in
Visibility -9999.0 miles
Clouds Clear
Heat Index 73 °F
Dew Point 62 °F
Humidity 73%
Rainfall 0.00 in
Snow Depth Not available.
UV 5 out of 12
Pollen 4.00 out of 12
Air Quality Not available.
Flu Activity Not available.
METAR KICL 041435Z AUTO 17004KT CLR 21/17 A3005 RMK AO2

More Conditions Fewer Conditions

Pressure 30.05 in
Visibility -9999.0 miles
Clouds Clear
Heat Index 73 °F
Dew Point 62 °F
Humidity 73%
Rainfall 0.00 in
Snow Depth Not available.
UV 5 out of 12
Pollen 4.00 out of 12
Air Quality Not available.
Flu Activity Not available.
METAR KICL 041435Z AUTO 17004KT CLR 21/17 A3005 RMK AO2

More Conditions Fewer Conditions

10-Day Weather Forecast

×

Almanac

Astronomy

Jul. 04, 2015 Rise Set
Actual Time
Civil Twilight
Nautical Twilight
Astronomical Twilight
Moon
Length of Visible Light
Length of Day
Tomorrow will be .
, % of the Moon is Illuminated

Today's Extremes

State Highs State Lows

Community

WunderPhotos

Upload Photos

1,834,982 photos uploaded!

WunderBlogs® & News

Nearby

Air Quality

  Air Quality AQ Index Pollutant
Not available.

Snow Depth

Station Depth Elevation

Earthquake Activity

City Distance Mag. Time & Date
Minimum magnitude displayed is 2.5.

Coastal Water Temperatures

Place Temperature

Stations

Nearby Weather Stations

Station Location Temp. Windchill Dew Point Humidity Wind Precip. Elev Updated Type